sensor_id;sensor_type;location;lat;lon;timestamp;P1;durP1;ratioP1;P2;durP2;ratioP2
4704;SDS011;2366;51.332;6.610;2023-06-26T00:00:12;6.77;;;6.07;;
4704;SDS011;2366;51.332;6.610;2023-06-26T00:02:37;7.90;;;6.50;;
4704;SDS011;2366;51.332;6.610;2023-06-26T00:05:03;8.43;;;6.00;;
4704;SDS011;2366;51.332;6.610;2023-06-26T00:07:29;8.67;;;6.27;;
4704;SDS011;2366;51.332;6.610;2023-06-26T00:09:55;5.80;;;5.17;;
4704;SDS011;2366;51.332;6.610;2023-06-26T00:12:22;6.50;;;5.90;;
4704;SDS011;2366;51.332;6.610;2023-06-26T00:14:47;7.17;;;6.30;;
4704;SDS011;2366;51.332;6.610;2023-06-26T00:17:13;8.13;;;6.17;;
4704;SDS011;2366;51.332;6.610;2023-06-26T00:19:38;7.90;;;6.13;;
4704;SDS011;2366;51.332;6.610;2023-06-26T00:22:03;7.57;;;6.30;;
4704;SDS011;2366;51.332;6.610;2023-06-26T00:24:29;8.73;;;7.03;;
4704;SDS011;2366;51.332;6.610;2023-06-26T00:26:54;8.67;;;6.67;;
4704;SDS011;2366;51.332;6.610;2023-06-26T00:29:20;9.00;;;6.50;;
4704;SDS011;2366;51.332;6.610;2023-06-26T00:31:45;7.73;;;6.43;;
4704;SDS011;2366;51.332;6.610;2023-06-26T00:34:11;7.80;;;6.67;;
4704;SDS011;2366;51.332;6.610;2023-06-26T00:36:36;6.90;;;5.93;;
4704;SDS011;2366;51.332;6.610;2023-06-26T00:39:02;6.90;;;6.20;;
4704;SDS011;2366;51.332;6.610;2023-06-26T00:41:28;9.20;;;6.63;;
4704;SDS011;2366;51.332;6.610;2023-06-26T00:43:54;6.87;;;5.80;;
4704;SDS011;2366;51.332;6.610;2023-06-26T00:46:19;7.07;;;5.77;;
4704;SDS011;2366;51.332;6.610;2023-06-26T00:48:46;8.10;;;5.63;;
4704;SDS011;2366;51.332;6.610;2023-06-26T00:51:13;7.57;;;5.73;;
4704;SDS011;2366;51.332;6.610;2023-06-26T00:53:38;8.13;;;5.63;;
4704;SDS011;2366;51.332;6.610;2023-06-26T00:56:05;8.10;;;6.60;;
4704;SDS011;2366;51.332;6.610;2023-06-26T00:58:31;7.57;;;5.67;;
4704;SDS011;2366;51.332;6.610;2023-06-26T01:00:56;13.93;;;7.73;;
4704;SDS011;2366;51.332;6.610;2023-06-26T01:03:23;10.30;;;6.43;;
4704;SDS011;2366;51.332;6.610;2023-06-26T01:05:50;8.30;;;6.20;;
4704;SDS011;2366;51.332;6.610;2023-06-26T01:08:17;8.40;;;6.60;;
4704;SDS011;2366;51.332;6.610;2023-06-26T01:10:43;8.77;;;6.07;;
4704;SDS011;2366;51.332;6.610;2023-06-26T01:13:09;9.20;;;7.27;;
4704;SDS011;2366;51.332;6.610;2023-06-26T01:15:37;10.20;;;6.30;;
4704;SDS011;2366;51.332;6.610;2023-06-26T01:18:02;10.03;;;7.60;;
4704;SDS011;2366;51.332;6.610;2023-06-26T01:20:38;10.93;;;6.20;;
4704;SDS011;2366;51.332;6.610;2023-06-26T01:26:11;6.57;;;5.90;;
4704;SDS011;2366;51.332;6.610;2023-06-26T01:28:46;8.17;;;6.73;;
4704;SDS011;2366;51.332;6.610;2023-06-26T01:31:13;10.53;;;7.47;;
4704;SDS011;2366;51.332;6.610;2023-06-26T01:33:40;10.97;;;7.50;;
4704;SDS011;2366;51.332;6.610;2023-06-26T01:36:06;10.23;;;5.87;;
4704;SDS011;2366;51.332;6.610;2023-06-26T01:38:32;9.20;;;7.37;;
4704;SDS011;2366;51.332;6.610;2023-06-26T01:40:59;13.20;;;6.90;;
4704;SDS011;2366;51.332;6.610;2023-06-26T01:43:35;8.40;;;6.87;;
4704;SDS011;2366;51.332;6.610;2023-06-26T01:46:24;7.53;;;6.23;;
4704;SDS011;2366;51.332;6.610;2023-06-26T01:48:59;13.50;;;6.00;;
4704;SDS011;2366;51.332;6.610;2023-06-26T01:51:32;8.73;;;6.40;;
4704;SDS011;2366;51.332;6.610;2023-06-26T01:54:08;13.80;;;7.90;;
4704;SDS011;2366;51.332;6.610;2023-06-26T01:56:38;9.70;;;6.73;;
4704;SDS011;2366;51.332;6.610;2023-06-26T01:59:05;17.70;;;6.33;;
4704;SDS011;2366;51.332;6.610;2023-06-26T02:01:32;10.00;;;6.97;;
4704;SDS011;2366;51.332;6.610;2023-06-26T02:03:58;9.23;;;7.00;;
4704;SDS011;2366;51.332;6.610;2023-06-26T02:06:24;13.83;;;7.73;;
4704;SDS011;2366;51.332;6.610;2023-06-26T02:08:49;11.20;;;6.77;;
4704;SDS011;2366;51.332;6.610;2023-06-26T02:11:15;12.00;;;7.60;;
4704;SDS011;2366;51.332;6.610;2023-06-26T02:13:40;9.47;;;6.40;;
4704;SDS011;2366;51.332;6.610;2023-06-26T02:16:06;11.93;;;6.30;;
4704;SDS011;2366;51.332;6.610;2023-06-26T02:18:31;7.90;;;7.10;;
4704;SDS011;2366;51.332;6.610;2023-06-26T02:20:56;11.00;;;6.97;;
4704;SDS011;2366;51.332;6.610;2023-06-26T02:23:21;12.70;;;8.30;;
4704;SDS011;2366;51.332;6.610;2023-06-26T02:25:47;7.67;;;6.73;;
4704;SDS011;2366;51.332;6.610;2023-06-26T02:28:12;12.00;;;6.93;;
4704;SDS011;2366;51.332;6.610;2023-06-26T02:30:38;9.90;;;7.07;;
4704;SDS011;2366;51.332;6.610;2023-06-26T02:33:03;9.70;;;7.20;;
4704;SDS011;2366;51.332;6.610;2023-06-26T02:35:28;11.50;;;7.47;;
4704;SDS011;2366;51.332;6.610;2023-06-26T02:37:54;8.80;;;6.90;;
4704;SDS011;2366;51.332;6.610;2023-06-26T02:40:19;10.60;;;7.50;;
4704;SDS011;2366;51.332;6.610;2023-06-26T02:42:44;9.40;;;7.20;;
4704;SDS011;2366;51.332;6.610;2023-06-26T02:45:10;10.50;;;8.03;;
4704;SDS011;2366;51.332;6.610;2023-06-26T02:47:35;12.90;;;7.97;;
4704;SDS011;2366;51.332;6.610;2023-06-26T02:50:04;9.27;;;7.17;;
4704;SDS011;2366;51.332;6.610;2023-06-26T02:52:30;9.27;;;7.57;;
4704;SDS011;2366;51.332;6.610;2023-06-26T02:54:56;7.57;;;6.40;;
4704;SDS011;2366;51.332;6.610;2023-06-26T02:57:21;9.67;;;6.70;;
4704;SDS011;2366;51.332;6.610;2023-06-26T02:59:46;18.93;;;7.53;;
4704;SDS011;2366;51.332;6.610;2023-06-26T03:02:18;9.30;;;7.30;;
4704;SDS011;2366;51.332;6.610;2023-06-26T03:04:43;11.20;;;6.63;;
4704;SDS011;2366;51.332;6.610;2023-06-26T03:07:09;8.47;;;6.03;;
4704;SDS011;2366;51.332;6.610;2023-06-26T03:09:34;9.20;;;6.13;;
4704;SDS011;2366;51.332;6.610;2023-06-26T03:12:00;9.67;;;7.87;;
4704;SDS011;2366;51.332;6.610;2023-06-26T03:14:25;8.53;;;7.27;;
4704;SDS011;2366;51.332;6.610;2023-06-26T03:16:51;6.90;;;6.20;;
4704;SDS011;2366;51.332;6.610;2023-06-26T03:19:17;7.33;;;6.00;;
4704;SDS011;2366;51.332;6.610;2023-06-26T03:21:43;8.23;;;7.40;;
4704;SDS011;2366;51.332;6.610;2023-06-26T03:24:08;11.53;;;7.27;;
4704;SDS011;2366;51.332;6.610;2023-06-26T03:26:34;9.73;;;6.60;;
4704;SDS011;2366;51.332;6.610;2023-06-26T03:28:59;7.63;;;5.80;;
4704;SDS011;2366;51.332;6.610;2023-06-26T03:31:24;9.93;;;7.20;;
4704;SDS011;2366;51.332;6.610;2023-06-26T03:33:50;8.00;;;7.17;;
4704;SDS011;2366;51.332;6.610;2023-06-26T03:36:15;6.63;;;5.60;;
4704;SDS011;2366;51.332;6.610;2023-06-26T03:38:41;8.20;;;6.40;;
4704;SDS011;2366;51.332;6.610;2023-06-26T03:41:06;10.70;;;7.60;;
4704;SDS011;2366;51.332;6.610;2023-06-26T03:43:31;8.07;;;6.27;;
4704;SDS011;2366;51.332;6.610;2023-06-26T03:45:57;7.87;;;6.33;;
4704;SDS011;2366;51.332;6.610;2023-06-26T03:48:22;9.23;;;6.57;;
4704;SDS011;2366;51.332;6.610;2023-06-26T03:50:48;9.13;;;6.90;;
4704;SDS011;2366;51.332;6.610;2023-06-26T03:53:14;8.77;;;6.30;;
4704;SDS011;2366;51.332;6.610;2023-06-26T03:55:39;8.97;;;7.00;;
4704;SDS011;2366;51.332;6.610;2023-06-26T03:58:04;8.23;;;7.40;;
4704;SDS011;2366;51.332;6.610;2023-06-26T04:00:30;7.10;;;6.20;;
4704;SDS011;2366;51.332;6.610;2023-06-26T04:02:55;8.27;;;6.77;;
4704;SDS011;2366;51.332;6.610;2023-06-26T04:05:22;8.27;;;6.20;;
4704;SDS011;2366;51.332;6.610;2023-06-26T04:07:51;7.47;;;6.47;;
4704;SDS011;2366;51.332;6.610;2023-06-26T04:10:17;7.90;;;7.13;;
4704;SDS011;2366;51.332;6.610;2023-06-26T04:12:43;8.67;;;6.87;;
4704;SDS011;2366;51.332;6.610;2023-06-26T04:15:08;7.20;;;6.07;;
4704;SDS011;2366;51.332;6.610;2023-06-26T04:17:34;6.10;;;5.60;;
4704;SDS011;2366;51.332;6.610;2023-06-26T04:19:59;7.27;;;5.47;;
4704;SDS011;2366;51.332;6.610;2023-06-26T04:22:24;9.97;;;6.23;;
4704;SDS011;2366;51.332;6.610;2023-06-26T04:24:50;5.97;;;5.27;;
4704;SDS011;2366;51.332;6.610;2023-06-26T04:27:16;6.13;;;5.27;;
4704;SDS011;2366;51.332;6.610;2023-06-26T04:29:42;9.87;;;6.10;;
4704;SDS011;2366;51.332;6.610;2023-06-26T04:32:07;7.93;;;4.60;;
4704;SDS011;2366;51.332;6.610;2023-06-26T04:34:33;6.73;;;4.70;;
4704;SDS011;2366;51.332;6.610;2023-06-26T04:37:00;5.43;;;4.80;;
4704;SDS011;2366;51.332;6.610;2023-06-26T04:39:25;13.70;;;4.50;;
4704;SDS011;2366;51.332;6.610;2023-06-26T04:41:51;5.67;;;5.07;;
4704;SDS011;2366;51.332;6.610;2023-06-26T04:44:16;6.30;;;4.57;;
4704;SDS011;2366;51.332;6.610;2023-06-26T04:46:41;7.20;;;5.00;;
4704;SDS011;2366;51.332;6.610;2023-06-26T04:49:07;8.07;;;4.10;;
4704;SDS011;2366;51.332;6.610;2023-06-26T04:51:33;5.90;;;4.80;;
4704;SDS011;2366;51.332;6.610;2023-06-26T04:53:58;3.70;;;3.40;;
4704;SDS011;2366;51.332;6.610;2023-06-26T04:56:24;4.90;;;3.40;;
4704;SDS011;2366;51.332;6.610;2023-06-26T04:58:49;6.97;;;4.50;;
4704;SDS011;2366;51.332;6.610;2023-06-26T05:01:14;6.53;;;5.10;;
4704;SDS011;2366;51.332;6.610;2023-06-26T05:03:40;10.63;;;4.70;;
4704;SDS011;2366;51.332;6.610;2023-06-26T05:06:05;7.20;;;4.43;;
4704;SDS011;2366;51.332;6.610;2023-06-26T05:08:31;4.73;;;3.77;;
4704;SDS011;2366;51.332;6.610;2023-06-26T05:10:56;4.73;;;4.30;;
4704;SDS011;2366;51.332;6.610;2023-06-26T05:13:23;7.07;;;4.03;;
4704;SDS011;2366;51.332;6.610;2023-06-26T05:15:49;4.30;;;3.90;;
4704;SDS011;2366;51.332;6.610;2023-06-26T05:18:15;8.17;;;5.10;;
4704;SDS011;2366;51.332;6.610;2023-06-26T05:20:41;6.70;;;3.97;;
4704;SDS011;2366;51.332;6.610;2023-06-26T05:23:06;6.70;;;4.70;;
4704;SDS011;2366;51.332;6.610;2023-06-26T05:25:32;6.20;;;3.70;;
4704;SDS011;2366;51.332;6.610;2023-06-26T05:27:59;5.03;;;4.07;;
4704;SDS011;2366;51.332;6.610;2023-06-26T05:30:25;6.23;;;3.93;;
4704;SDS011;2366;51.332;6.610;2023-06-26T05:32:53;9.13;;;3.60;;
4704;SDS011;2366;51.332;6.610;2023-06-26T05:35:22;6.50;;;4.33;;
4704;SDS011;2366;51.332;6.610;2023-06-26T05:37:48;4.20;;;3.07;;
4704;SDS011;2366;51.332;6.610;2023-06-26T05:40:15;4.40;;;3.20;;
4704;SDS011;2366;51.332;6.610;2023-06-26T05:42:43;3.57;;;3.13;;
4704;SDS011;2366;51.332;6.610;2023-06-26T05:45:09;5.77;;;3.47;;
4704;SDS011;2366;51.332;6.610;2023-06-26T05:47:35;5.03;;;3.97;;
4704;SDS011;2366;51.332;6.610;2023-06-26T05:50:01;7.10;;;3.97;;
4704;SDS011;2366;51.332;6.610;2023-06-26T05:52:27;14.43;;;4.57;;
4704;SDS011;2366;51.332;6.610;2023-06-26T05:54:53;6.30;;;3.80;;
4704;SDS011;2366;51.332;6.610;2023-06-26T05:57:19;7.83;;;4.10;;
4704;SDS011;2366;51.332;6.610;2023-06-26T05:59:45;5.17;;;4.00;;
4704;SDS011;2366;51.332;6.610;2023-06-26T06:02:11;6.33;;;3.90;;
4704;SDS011;2366;51.332;6.610;2023-06-26T06:04:37;8.47;;;4.43;;
4704;SDS011;2366;51.332;6.610;2023-06-26T06:07:03;7.73;;;4.03;;
4704;SDS011;2366;51.332;6.610;2023-06-26T06:09:28;9.13;;;4.50;;
4704;SDS011;2366;51.332;6.610;2023-06-26T06:11:54;4.37;;;3.70;;
4704;SDS011;2366;51.332;6.610;2023-06-26T06:14:19;5.80;;;4.10;;
4704;SDS011;2366;51.332;6.610;2023-06-26T06:16:45;3.83;;;3.03;;
4704;SDS011;2366;51.332;6.610;2023-06-26T06:19:10;4.20;;;3.57;;
4704;SDS011;2366;51.332;6.610;2023-06-26T06:21:37;5.80;;;4.03;;
4704;SDS011;2366;51.332;6.610;2023-06-26T06:24:03;6.03;;;3.40;;
4704;SDS011;2366;51.332;6.610;2023-06-26T06:26:28;8.60;;;3.37;;
4704;SDS011;2366;51.332;6.610;2023-06-26T06:28:54;6.00;;;3.73;;
4704;SDS011;2366;51.332;6.610;2023-06-26T06:31:19;7.87;;;3.70;;
4704;SDS011;2366;51.332;6.610;2023-06-26T06:33:45;5.43;;;4.53;;
4704;SDS011;2366;51.332;6.610;2023-06-26T06:36:10;6.67;;;3.10;;
4704;SDS011;2366;51.332;6.610;2023-06-26T06:38:36;8.27;;;3.17;;
4704;SDS011;2366;51.332;6.610;2023-06-26T06:41:01;6.40;;;4.03;;
4704;SDS011;2366;51.332;6.610;2023-06-26T06:43:27;6.60;;;3.50;;
4704;SDS011;2366;51.332;6.610;2023-06-26T06:45:52;3.43;;;3.13;;
4704;SDS011;2366;51.332;6.610;2023-06-26T06:48:17;4.83;;;3.17;;
4704;SDS011;2366;51.332;6.610;2023-06-26T06:50:43;6.03;;;3.47;;
4704;SDS011;2366;51.332;6.610;2023-06-26T06:53:08;4.47;;;3.43;;
4704;SDS011;2366;51.332;6.610;2023-06-26T06:55:33;7.47;;;4.23;;
4704;SDS011;2366;51.332;6.610;2023-06-26T06:57:59;9.33;;;4.40;;
4704;SDS011;2366;51.332;6.610;2023-06-26T07:00:24;7.03;;;3.80;;
4704;SDS011;2366;51.332;6.610;2023-06-26T07:02:49;5.30;;;3.63;;
4704;SDS011;2366;51.332;6.610;2023-06-26T07:05:15;7.13;;;4.23;;
4704;SDS011;2366;51.332;6.610;2023-06-26T07:07:41;4.80;;;2.90;;
4704;SDS011;2366;51.332;6.610;2023-06-26T07:10:07;4.87;;;3.83;;
4704;SDS011;2366;51.332;6.610;2023-06-26T07:12:34;5.57;;;3.50;;
4704;SDS011;2366;51.332;6.610;2023-06-26T07:15:04;6.60;;;3.40;;
4704;SDS011;2366;51.332;6.610;2023-06-26T07:17:31;5.63;;;2.77;;
4704;SDS011;2366;51.332;6.610;2023-06-26T07:19:57;5.63;;;3.23;;
4704;SDS011;2366;51.332;6.610;2023-06-26T07:22:22;5.67;;;3.00;;
4704;SDS011;2366;51.332;6.610;2023-06-26T07:24:48;6.77;;;2.97;;
4704;SDS011;2366;51.332;6.610;2023-06-26T07:27:14;10.03;;;2.67;;
4704;SDS011;2366;51.332;6.610;2023-06-26T07:29:40;8.13;;;2.70;;
4704;SDS011;2366;51.332;6.610;2023-06-26T07:32:06;5.83;;;3.10;;
4704;SDS011;2366;51.332;6.610;2023-06-26T07:34:31;4.40;;;3.13;;
4704;SDS011;2366;51.332;6.610;2023-06-26T07:36:57;4.40;;;2.70;;
4704;SDS011;2366;51.332;6.610;2023-06-26T07:39:22;4.90;;;2.27;;
4704;SDS011;2366;51.332;6.610;2023-06-26T07:41:47;3.43;;;2.67;;
4704;SDS011;2366;51.332;6.610;2023-06-26T07:44:13;3.57;;;2.97;;
4704;SDS011;2366;51.332;6.610;2023-06-26T07:46:39;4.80;;;2.73;;
4704;SDS011;2366;51.332;6.610;2023-06-26T07:49:04;9.67;;;3.50;;
4704;SDS011;2366;51.332;6.610;2023-06-26T07:51:30;3.63;;;2.93;;
4704;SDS011;2366;51.332;6.610;2023-06-26T07:53:55;4.53;;;2.57;;
4704;SDS011;2366;51.332;6.610;2023-06-26T07:56:20;4.57;;;2.77;;
4704;SDS011;2366;51.332;6.610;2023-06-26T07:58:46;7.97;;;3.57;;
4704;SDS011;2366;51.332;6.610;2023-06-26T08:01:11;6.60;;;2.77;;
4704;SDS011;2366;51.332;6.610;2023-06-26T08:03:36;10.07;;;4.00;;
4704;SDS011;2366;51.332;6.610;2023-06-26T08:06:02;11.23;;;3.20;;
4704;SDS011;2366;51.332;6.610;2023-06-26T08:08:28;7.73;;;2.90;;
4704;SDS011;2366;51.332;6.610;2023-06-26T08:10:53;6.40;;;3.63;;
4704;SDS011;2366;51.332;6.610;2023-06-26T08:13:19;6.80;;;2.90;;
4704;SDS011;2366;51.332;6.610;2023-06-26T08:15:44;8.57;;;3.47;;
4704;SDS011;2366;51.332;6.610;2023-06-26T08:18:10;12.47;;;3.63;;
4704;SDS011;2366;51.332;6.610;2023-06-26T08:20:35;9.23;;;3.67;;
4704;SDS011;2366;51.332;6.610;2023-06-26T08:23:08;6.63;;;3.20;;
4704;SDS011;2366;51.332;6.610;2023-06-26T08:25:33;6.13;;;2.80;;
4704;SDS011;2366;51.332;6.610;2023-06-26T08:27:59;17.83;;;4.00;;
4704;SDS011;2366;51.332;6.610;2023-06-26T08:30:24;6.07;;;3.43;;
4704;SDS011;2366;51.332;6.610;2023-06-26T08:32:53;5.23;;;2.70;;
4704;SDS011;2366;51.332;6.610;2023-06-26T08:35:20;6.13;;;2.80;;
4704;SDS011;2366;51.332;6.610;2023-06-26T08:37:46;9.87;;;2.60;;
4704;SDS011;2366;51.332;6.610;2023-06-26T08:40:12;5.23;;;2.37;;
4704;SDS011;2366;51.332;6.610;2023-06-26T08:42:37;3.87;;;2.70;;
4704;SDS011;2366;51.332;6.610;2023-06-26T08:45:03;7.40;;;2.83;;
4704;SDS011;2366;51.332;6.610;2023-06-26T08:47:29;3.80;;;2.47;;
4704;SDS011;2366;51.332;6.610;2023-06-26T08:50:01;3.93;;;2.77;;
4704;SDS011;2366;51.332;6.610;2023-06-26T08:52:33;4.90;;;1.90;;
4704;SDS011;2366;51.332;6.610;2023-06-26T08:55:02;4.53;;;2.20;;
4704;SDS011;2366;51.332;6.610;2023-06-26T08:57:31;8.57;;;2.33;;
4704;SDS011;2366;51.332;6.610;2023-06-26T08:59:57;6.63;;;2.53;;
4704;SDS011;2366;51.332;6.610;2023-06-26T09:02:23;7.97;;;2.40;;
4704;SDS011;2366;51.332;6.610;2023-06-26T09:04:49;6.30;;;2.37;;
4704;SDS011;2366;51.332;6.610;2023-06-26T09:07:15;4.37;;;2.03;;
4704;SDS011;2366;51.332;6.610;2023-06-26T09:09:43;6.93;;;2.80;;
4704;SDS011;2366;51.332;6.610;2023-06-26T09:12:08;2.80;;;1.80;;
4704;SDS011;2366;51.332;6.610;2023-06-26T09:14:34;2.30;;;1.50;;
4704;SDS011;2366;51.332;6.610;2023-06-26T09:17:01;7.33;;;2.67;;
4704;SDS011;2366;51.332;6.610;2023-06-26T09:19:27;4.47;;;2.57;;
4704;SDS011;2366;51.332;6.610;2023-06-26T09:21:52;4.43;;;2.30;;
4704;SDS011;2366;51.332;6.610;2023-06-26T09:24:19;9.37;;;2.70;;
4704;SDS011;2366;51.332;6.610;2023-06-26T09:26:45;5.20;;;2.03;;
4704;SDS011;2366;51.332;6.610;2023-06-26T09:29:11;3.67;;;2.40;;
4704;SDS011;2366;51.332;6.610;2023-06-26T09:31:38;7.10;;;2.33;;
4704;SDS011;2366;51.332;6.610;2023-06-26T09:34:06;2.03;;;1.73;;
4704;SDS011;2366;51.332;6.610;2023-06-26T09:36:32;5.20;;;2.50;;
4704;SDS011;2366;51.332;6.610;2023-06-26T09:39:02;6.40;;;1.70;;
4704;SDS011;2366;51.332;6.610;2023-06-26T09:41:29;3.10;;;1.60;;
4704;SDS011;2366;51.332;6.610;2023-06-26T09:43:57;4.47;;;2.20;;
4704;SDS011;2366;51.332;6.610;2023-06-26T09:46:26;4.87;;;2.00;;
4704;SDS011;2366;51.332;6.610;2023-06-26T09:51:23;2.40;;;2.17;;
4704;SDS011;2366;51.332;6.610;2023-06-26T09:53:49;6.60;;;2.20;;
4704;SDS011;2366;51.332;6.610;2023-06-26T09:56:15;4.57;;;2.00;;
4704;SDS011;2366;51.332;6.610;2023-06-26T09:58:42;6.20;;;2.60;;
4704;SDS011;2366;51.332;6.610;2023-06-26T10:01:08;7.43;;;2.27;;
4704;SDS011;2366;51.332;6.610;2023-06-26T10:03:34;3.33;;;2.03;;
4704;SDS011;2366;51.332;6.610;2023-06-26T10:06:00;4.13;;;2.10;;
4704;SDS011;2366;51.332;6.610;2023-06-26T10:08:27;4.60;;;1.97;;
4704;SDS011;2366;51.332;6.610;2023-06-26T10:10:54;5.70;;;2.00;;
4704;SDS011;2366;51.332;6.610;2023-06-26T10:13:22;3.67;;;1.50;;
4704;SDS011;2366;51.332;6.610;2023-06-26T10:15:55;5.27;;;2.27;;
4704;SDS011;2366;51.332;6.610;2023-06-26T10:18:24;6.23;;;1.53;;
4704;SDS011;2366;51.332;6.610;2023-06-26T10:20:51;2.70;;;1.43;;
4704;SDS011;2366;51.332;6.610;2023-06-26T10:23:20;3.70;;;1.80;;
4704;SDS011;2366;51.332;6.610;2023-06-26T10:25:48;4.20;;;1.70;;
4704;SDS011;2366;51.332;6.610;2023-06-26T10:28:16;4.93;;;2.33;;
4704;SDS011;2366;51.332;6.610;2023-06-26T10:30:43;3.10;;;1.83;;
4704;SDS011;2366;51.332;6.610;2023-06-26T10:33:10;3.63;;;1.87;;
4704;SDS011;2366;51.332;6.610;2023-06-26T10:35:43;1.73;;;1.33;;
4704;SDS011;2366;51.332;6.610;2023-06-26T10:38:12;5.03;;;1.37;;
4704;SDS011;2366;51.332;6.610;2023-06-26T10:40:44;1.50;;;1.40;;
4704;SDS011;2366;51.332;6.610;2023-06-26T10:43:12;6.50;;;1.90;;
4704;SDS011;2366;51.332;6.610;2023-06-26T10:45:48;5.83;;;1.90;;
4704;SDS011;2366;51.332;6.610;2023-06-26T10:48:17;8.43;;;2.80;;
4704;SDS011;2366;51.332;6.610;2023-06-26T10:50:43;4.70;;;1.60;;
4704;SDS011;2366;51.332;6.610;2023-06-26T10:55:50;3.40;;;1.47;;
4704;SDS011;2366;51.332;6.610;2023-06-26T10:58:30;1.20;;;1.10;;
4704;SDS011;2366;51.332;6.610;2023-06-26T11:03:40;3.40;;;1.30;;
4704;SDS011;2366;51.332;6.610;2023-06-26T11:06:10;3.67;;;1.53;;
4704;SDS011;2366;51.332;6.610;2023-06-26T11:08:43;1.93;;;1.27;;
4704;SDS011;2366;51.332;6.610;2023-06-26T11:14:23;10.73;;;1.67;;
4704;SDS011;2366;51.332;6.610;2023-06-26T11:16:50;3.73;;;1.50;;
4704;SDS011;2366;51.332;6.610;2023-06-26T11:19:16;2.03;;;1.17;;
4704;SDS011;2366;51.332;6.610;2023-06-26T11:21:43;1.70;;;1.10;;
4704;SDS011;2366;51.332;6.610;2023-06-26T11:24:09;4.00;;;0.97;;
4704;SDS011;2366;51.332;6.610;2023-06-26T11:26:43;3.90;;;1.23;;
4704;SDS011;2366;51.332;6.610;2023-06-26T11:29:09;2.50;;;0.80;;
4704;SDS011;2366;51.332;6.610;2023-06-26T11:31:36;3.27;;;1.13;;
4704;SDS011;2366;51.332;6.610;2023-06-26T11:34:04;1.87;;;1.17;;
4704;SDS011;2366;51.332;6.610;2023-06-26T11:36:32;3.23;;;1.17;;
4704;SDS011;2366;51.332;6.610;2023-06-26T11:39:02;1.37;;;1.13;;
4704;SDS011;2366;51.332;6.610;2023-06-26T11:41:29;3.70;;;1.17;;
4704;SDS011;2366;51.332;6.610;2023-06-26T11:43:59;2.80;;;0.87;;
4704;SDS011;2366;51.332;6.610;2023-06-26T11:46:35;1.47;;;0.83;;
4704;SDS011;2366;51.332;6.610;2023-06-26T11:49:05;1.20;;;1.07;;
4704;SDS011;2366;51.332;6.610;2023-06-26T11:51:31;1.57;;;0.87;;
4704;SDS011;2366;51.332;6.610;2023-06-26T11:53:56;5.07;;;0.80;;
4704;SDS011;2366;51.332;6.610;2023-06-26T11:56:22;3.37;;;1.00;;
4704;SDS011;2366;51.332;6.610;2023-06-26T11:58:57;1.40;;;0.97;;
4704;SDS011;2366;51.332;6.610;2023-06-26T12:01:33;5.60;;;1.43;;
4704;SDS011;2366;51.332;6.610;2023-06-26T12:04:02;1.77;;;0.90;;
4704;SDS011;2366;51.332;6.610;2023-06-26T12:06:30;1.90;;;0.93;;
4704;SDS011;2366;51.332;6.610;2023-06-26T12:08:57;2.57;;;0.90;;
4704;SDS011;2366;51.332;6.610;2023-06-26T12:11:24;2.13;;;0.97;;
4704;SDS011;2366;51.332;6.610;2023-06-26T12:13:50;10.70;;;0.87;;
4704;SDS011;2366;51.332;6.610;2023-06-26T12:16:16;2.13;;;1.23;;
4704;SDS011;2366;51.332;6.610;2023-06-26T12:18:41;1.10;;;0.63;;
4704;SDS011;2366;51.332;6.610;2023-06-26T12:21:07;1.80;;;1.00;;
4704;SDS011;2366;51.332;6.610;2023-06-26T12:23:33;1.50;;;1.00;;
4704;SDS011;2366;51.332;6.610;2023-06-26T12:26:17;2.73;;;1.10;;
4704;SDS011;2366;51.332;6.610;2023-06-26T12:28:44;2.10;;;0.83;;
4704;SDS011;2366;51.332;6.610;2023-06-26T12:31:16;3.07;;;1.17;;
4704;SDS011;2366;51.332;6.610;2023-06-26T12:33:44;5.30;;;0.77;;
4704;SDS011;2366;51.332;6.610;2023-06-26T12:36:11;2.40;;;0.90;;
4704;SDS011;2366;51.332;6.610;2023-06-26T12:38:45;0.93;;;0.77;;
4704;SDS011;2366;51.332;6.610;2023-06-26T12:41:14;3.70;;;1.53;;
4704;SDS011;2366;51.332;6.610;2023-06-26T12:43:41;2.07;;;0.77;;
4704;SDS011;2366;51.332;6.610;2023-06-26T12:46:07;1.83;;;1.03;;
4704;SDS011;2366;51.332;6.610;2023-06-26T12:51:17;1.30;;;0.93;;
4704;SDS011;2366;51.332;6.610;2023-06-26T12:53:43;1.47;;;0.93;;
4704;SDS011;2366;51.332;6.610;2023-06-26T12:56:09;2.60;;;1.10;;
4704;SDS011;2366;51.332;6.610;2023-06-26T12:58:35;1.77;;;1.03;;
4704;SDS011;2366;51.332;6.610;2023-06-26T13:01:05;1.70;;;1.00;;
4704;SDS011;2366;51.332;6.610;2023-06-26T13:03:38;1.00;;;0.90;;
4704;SDS011;2366;51.332;6.610;2023-06-26T13:06:03;2.67;;;1.37;;
4704;SDS011;2366;51.332;6.610;2023-06-26T13:08:29;2.13;;;1.43;;
4704;SDS011;2366;51.332;6.610;2023-06-26T13:10:54;1.60;;;0.90;;
4704;SDS011;2366;51.332;6.610;2023-06-26T13:13:20;5.07;;;1.03;;
4704;SDS011;2366;51.332;6.610;2023-06-26T13:15:45;6.47;;;1.37;;
4704;SDS011;2366;51.332;6.610;2023-06-26T13:18:10;1.67;;;1.03;;
4704;SDS011;2366;51.332;6.610;2023-06-26T13:20:36;3.30;;;1.27;;
4704;SDS011;2366;51.332;6.610;2023-06-26T13:23:01;6.03;;;1.30;;
4704;SDS011;2366;51.332;6.610;2023-06-26T13:25:26;3.00;;;1.10;;
4704;SDS011;2366;51.332;6.610;2023-06-26T13:27:52;3.30;;;1.00;;
4704;SDS011;2366;51.332;6.610;2023-06-26T13:30:17;4.03;;;1.40;;
4704;SDS011;2366;51.332;6.610;2023-06-26T13:32:42;2.80;;;0.90;;
4704;SDS011;2366;51.332;6.610;2023-06-26T13:35:08;6.30;;;1.40;;
4704;SDS011;2366;51.332;6.610;2023-06-26T13:37:34;0.93;;;0.80;;
4704;SDS011;2366;51.332;6.610;2023-06-26T13:40:00;1.20;;;1.10;;
4704;SDS011;2366;51.332;6.610;2023-06-26T13:42:27;2.93;;;1.43;;
4704;SDS011;2366;51.332;6.610;2023-06-26T13:44:53;1.50;;;0.90;;
4704;SDS011;2366;51.332;6.610;2023-06-26T13:47:18;1.33;;;0.60;;
4704;SDS011;2366;51.332;6.610;2023-06-26T13:49:44;6.17;;;0.80;;
4704;SDS011;2366;51.332;6.610;2023-06-26T13:52:09;0.73;;;0.70;;
4704;SDS011;2366;51.332;6.610;2023-06-26T13:54:37;1.33;;;1.23;;
4704;SDS011;2366;51.332;6.610;2023-06-26T13:57:05;1.20;;;0.80;;
4704;SDS011;2366;51.332;6.610;2023-06-26T13:59:31;2.33;;;1.27;;
4704;SDS011;2366;51.332;6.610;2023-06-26T14:01:57;4.30;;;1.00;;
4704;SDS011;2366;51.332;6.610;2023-06-26T14:04:22;2.93;;;1.60;;
4704;SDS011;2366;51.332;6.610;2023-06-26T14:06:47;0.87;;;0.80;;
4704;SDS011;2366;51.332;6.610;2023-06-26T14:09:13;3.77;;;1.17;;
4704;SDS011;2366;51.332;6.610;2023-06-26T14:11:38;4.57;;;1.27;;
4704;SDS011;2366;51.332;6.610;2023-06-26T14:14:04;2.47;;;1.87;;
4704;SDS011;2366;51.332;6.610;2023-06-26T14:16:29;5.23;;;1.63;;
4704;SDS011;2366;51.332;6.610;2023-06-26T14:18:55;3.03;;;0.93;;
4704;SDS011;2366;51.332;6.610;2023-06-26T14:21:20;2.13;;;0.77;;
4704;SDS011;2366;51.332;6.610;2023-06-26T14:23:46;1.50;;;0.90;;
4704;SDS011;2366;51.332;6.610;2023-06-26T14:26:11;1.77;;;1.10;;
4704;SDS011;2366;51.332;6.610;2023-06-26T14:28:37;4.63;;;0.90;;
4704;SDS011;2366;51.332;6.610;2023-06-26T14:31:03;2.77;;;2.47;;
4704;SDS011;2366;51.332;6.610;2023-06-26T14:33:28;1.37;;;0.87;;
4704;SDS011;2366;51.332;6.610;2023-06-26T14:35:54;1.17;;;0.73;;
4704;SDS011;2366;51.332;6.610;2023-06-26T14:38:19;2.77;;;1.10;;
4704;SDS011;2366;51.332;6.610;2023-06-26T14:40:45;6.10;;;1.20;;
4704;SDS011;2366;51.332;6.610;2023-06-26T14:43:10;1.80;;;0.87;;
4704;SDS011;2366;51.332;6.610;2023-06-26T14:45:36;1.20;;;1.03;;
4704;SDS011;2366;51.332;6.610;2023-06-26T14:48:01;3.47;;;1.27;;
4704;SDS011;2366;51.332;6.610;2023-06-26T14:50:27;3.00;;;0.90;;
4704;SDS011;2366;51.332;6.610;2023-06-26T14:52:52;1.27;;;1.03;;
4704;SDS011;2366;51.332;6.610;2023-06-26T14:55:17;3.30;;;1.40;;
4704;SDS011;2366;51.332;6.610;2023-06-26T14:57:43;1.27;;;0.97;;
4704;SDS011;2366;51.332;6.610;2023-06-26T15:00:09;0.70;;;0.70;;
4704;SDS011;2366;51.332;6.610;2023-06-26T15:02:35;7.43;;;0.93;;
4704;SDS011;2366;51.332;6.610;2023-06-26T15:05:01;2.17;;;1.20;;
4704;SDS011;2366;51.332;6.610;2023-06-26T15:07:26;1.30;;;1.00;;
4704;SDS011;2366;51.332;6.610;2023-06-26T15:09:51;1.87;;;1.07;;
4704;SDS011;2366;51.332;6.610;2023-06-26T15:12:17;1.20;;;1.03;;
4704;SDS011;2366;51.332;6.610;2023-06-26T15:14:42;4.13;;;1.03;;
4704;SDS011;2366;51.332;6.610;2023-06-26T15:17:07;1.17;;;0.80;;
4704;SDS011;2366;51.332;6.610;2023-06-26T15:19:33;1.27;;;1.00;;
4704;SDS011;2366;51.332;6.610;2023-06-26T15:21:59;1.67;;;1.10;;
4704;SDS011;2366;51.332;6.610;2023-06-26T15:24:25;1.07;;;0.97;;
4704;SDS011;2366;51.332;6.610;2023-06-26T15:26:50;2.03;;;1.60;;